Terminal Aerodrome Forecast
Issued by NWS Cleveland, OH

Home | Current Version | Previous Version | Text Only | Print | Product List | Glossary Off
Versions: 1 2 3 4 5 6 7 8 9 10 11 12 13 14 15 16 17 18 19

362
FTUS41 KCLE 161735
TAFMFD
TAF
KMFD 161735Z 1618/1718 28012G20KT P6SM SCT019 OVC025
     FM162300 30008KT P6SM BKN025 OVC035
     FM170400 30005KT P6SM SCT025 OVC035
     FM171000 16003KT P6SM BKN025 OVC035
     FM171600 16010KT P6SM SCT035 BKN250=

USA.gov is the U.S. government's official web portal to all federal, state and local government web resources and services.